Time;durP1;ratioP1;P1;durP2;ratioP2;P2;SDS_P1;SDS_P2;PMS_P1;PMS_P2;Temp;Humidity;BMP_temperature;BMP_pressure;BME280_temperature;BME280_humidity;BME280_pressure;Samples;Min_cycle;Max_cycle;Signal;HPM_P1;HPM_P2
2023/08/07 00:00:17;;;;;;;3.22;2.05;;;17.30;99.90;;;;;;4991997;28;20399;-71
2023/08/07 00:03:03;;;;;;;3.67;2.28;;;17.30;99.90;;;;;;4989550;28;20081;-71
2023/08/07 00:05:51;;;;;;;4.20;2.00;;;17.30;99.90;;;;;;4993110;28;20034;-72
2023/08/07 00:08:38;;;;;;;4.68;1.90;;;17.20;99.90;;;;;;4990052;28;20052;-70
2023/08/07 00:11:24;;;;;;;4.18;2.38;;;17.30;99.90;;;;;;4980302;28;20049;-72
2023/08/07 00:14:10;;;;;;;4.22;2.10;;;17.30;99.90;;;;;;4983970;28;20454;-72
2023/08/07 00:16:55;;;;;;;3.70;2.22;;;17.30;99.90;;;;;;4988814;28;20065;-71
2023/08/07 00:19:41;;;;;;;5.13;2.17;;;17.30;99.90;;;;;;4976224;28;20104;-71
2023/08/07 00:22:27;;;;;;;5.78;2.35;;;17.30;99.90;;;;;;4990525;28;20050;-70
2023/08/07 00:25:13;;;;;;;4.38;2.53;;;17.30;99.90;;;;;;4990909;28;20403;-72
2023/08/07 00:27:59;;;;;;;4.07;2.55;;;17.30;99.90;;;;;;4988698;28;20054;-71
2023/08/07 00:30:45;;;;;;;3.65;2.55;;;17.30;99.90;;;;;;4989399;28;20046;-70
2023/08/07 00:33:31;;;;;;;3.72;2.33;;;17.30;99.90;;;;;;4990687;28;20042;-70
2023/08/07 00:36:17;;;;;;;4.20;2.50;;;17.40;99.90;;;;;;4991283;28;20133;-70
2023/08/07 00:39:03;;;;;;;3.75;2.33;;;17.30;99.90;;;;;;4988934;28;20411;-69
2023/08/07 00:41:49;;;;;;;2.78;2.13;;;17.30;99.90;;;;;;4989124;28;20073;-69
2023/08/07 00:44:35;;;;;;;4.10;2.50;;;17.30;99.90;;;;;;4990189;28;20050;-70
2023/08/07 00:47:21;;;;;;;3.55;2.20;;;17.30;99.90;;;;;;4989135;28;20074;-70
2023/08/07 00:50:07;;;;;;;5.32;2.90;;;17.30;99.90;;;;;;4988458;28;20547;-69
2023/08/07 00:52:54;;;;;;;3.40;2.30;;;17.40;99.90;;;;;;4976481;28;20038;-70
2023/08/07 00:55:41;;;;;;;5.50;2.50;;;17.40;99.90;;;;;;4992460;28;20042;-70
2023/08/07 00:58:27;;;;;;;3.75;2.38;;;17.30;99.90;;;;;;4973877;28;20482;-70
2023/08/07 01:01:14;;;;;;;3.25;2.20;;;17.40;99.90;;;;;;4986712;28;20046;-70
2023/08/07 01:04:00;;;;;;;5.88;2.58;;;17.40;99.90;;;;;;4990972;28;20065;-70
2023/08/07 01:06:46;;;;;;;4.20;2.40;;;17.40;99.90;;;;;;4982587;28;20075;-70
2023/08/07 01:09:32;;;;;;;3.97;2.60;;;17.40;99.90;;;;;;4972244;28;20392;-70
2023/08/07 01:12:22;;;;;;;3.50;2.20;;;17.40;99.90;;;;;;4988751;28;20038;-70
2023/08/07 01:15:24;;;;;;;6.00;2.60;;;17.40;99.90;;;;;;4984688;28;20042;-71
2023/08/07 01:18:11;;;;;;;3.55;2.22;;;17.40;99.90;;;;;;4988712;28;20042;-71
2023/08/07 01:20:57;;;;;;;5.53;2.25;;;17.40;99.90;;;;;;4991430;28;20083;-70
2023/08/07 01:23:43;;;;;;;3.45;2.28;;;17.40;99.90;;;;;;4990277;28;20073;-70
2023/08/07 01:26:29;;;;;;;4.15;2.20;;;17.40;99.90;;;;;;4989406;28;20455;-71
2023/08/07 01:29:31;;;;;;;5.93;2.33;;;17.50;99.90;;;;;;4974637;28;20053;-70
2023/08/07 01:32:35;;;;;;;4.63;2.78;;;17.40;99.90;;;;;;4988664;28;20073;-74
2023/08/07 01:35:26;;;;;;;3.72;2.50;;;17.50;99.90;;;;;;4987526;28;20109;-74
2023/08/07 01:38:14;;;;;;;4.07;2.65;;;17.50;99.90;;;;;;4990183;28;20046;-74
2023/08/07 01:41:01;;;;;;;7.05;2.50;;;17.50;99.90;;;;;;4987234;28;20046;-73
2023/08/07 01:43:47;;;;;;;5.25;2.63;;;17.50;99.90;;;;;;4989755;28;20400;-70
2023/08/07 01:46:33;;;;;;;4.03;2.80;;;17.50;99.90;;;;;;4980699;28;20408;-70
2023/08/07 01:49:19;;;;;;;3.55;2.47;;;17.50;99.90;;;;;;4969693;28;20086;-70
2023/08/07 01:52:06;;;;;;;4.20;2.28;;;17.50;99.90;;;;;;4987052;28;20657;-70
2023/08/07 01:54:52;;;;;;;4.32;2.65;;;17.50;99.90;;;;;;4988013;28;20407;-70
2023/08/07 01:57:38;;;;;;;4.10;2.42;;;17.50;99.90;;;;;;4989843;28;20042;-71
2023/08/07 02:00:24;;;;;;;5.15;2.42;;;17.50;99.90;;;;;;4973968;28;20038;-71
2023/08/07 02:03:10;;;;;;;7.60;2.85;;;17.50;99.90;;;;;;4985981;28;20166;-72
2023/08/07 02:05:56;;;;;;;8.18;2.63;;;17.40;99.90;;;;;;4984397;28;20117;-72
2023/08/07 02:08:42;;;;;;;4.10;2.20;;;17.40;99.90;;;;;;4986773;28;20038;-72
2023/08/07 02:11:28;;;;;;;4.85;3.22;;;17.30;99.90;;;;;;4981964;28;20476;-77
2023/08/07 02:14:14;;;;;;;3.95;2.60;;;17.30;99.90;;;;;;4990058;28;20137;-77
2023/08/07 02:16:59;;;;;;;4.93;3.05;;;17.30;99.90;;;;;;4996413;28;20041;-75
2023/08/07 02:19:45;;;;;;;8.85;3.35;;;17.30;99.90;;;;;;4999324;28;20635;-77
2023/08/07 02:22:31;;;;;;;3.90;2.28;;;17.20;99.90;;;;;;4989140;28;20064;-76
2023/08/07 02:25:17;;;;;;;3.85;2.55;;;17.20;99.90;;;;;;4975365;28;20034;-77
2023/08/07 02:28:07;;;;;;;5.50;2.55;;;17.20;99.90;;;;;;4988345;28;20042;-76
2023/08/07 02:30:54;;;;;;;6.10;2.88;;;17.10;99.90;;;;;;4989497;28;20668;-76
2023/08/07 02:33:41;;;;;;;5.88;2.83;;;17.10;99.90;;;;;;4989189;28;20050;-76
2023/08/07 02:36:27;;;;;;;4.30;2.60;;;17.10;99.90;;;;;;4980777;28;20164;-75
2023/08/07 02:39:14;;;;;;;5.90;3.20;;;17.10;99.90;;;;;;4987877;28;20038;-75
2023/08/07 02:42:00;;;;;;;8.77;3.08;;;17.10;99.90;;;;;;4987925;28;20042;-77
2023/08/07 02:44:46;;;;;;;6.05;3.55;;;17.10;99.90;;;;;;4988986;28;20615;-76
2023/08/07 02:47:32;;;;;;;5.70;3.28;;;17.20;99.90;;;;;;4989580;28;20042;-76
2023/08/07 02:50:18;;;;;;;4.57;2.83;;;17.20;99.90;;;;;;4972276;28;20081;-76
2023/08/07 02:53:04;;;;;;;5.38;3.58;;;17.20;99.90;;;;;;4979628;28;20121;-77
2023/08/07 02:55:49;;;;;;;4.60;2.90;;;17.20;99.90;;;;;;4976052;28;20049;-76
2023/08/07 02:58:35;;;;;;;8.35;3.45;;;17.20;99.90;;;;;;4993658;28;20133;-76
2023/08/07 03:01:21;;;;;;;5.90;2.92;;;17.30;99.90;;;;;;4983653;28;20039;-77
2023/08/07 03:04:07;;;;;;;4.90;3.45;;;17.30;99.90;;;;;;4993009;28;20053;-77
2023/08/07 03:06:54;;;;;;;6.95;3.50;;;17.30;99.90;;;;;;4992780;28;20066;-76
2023/08/07 03:09:40;;;;;;;5.53;3.38;;;17.30;99.90;;;;;;4973697;28;20074;-75
2023/08/07 03:12:26;;;;;;;5.35;2.90;;;17.30;99.90;;;;;;4974242;28;20043;-74
2023/08/07 03:15:12;;;;;;;6.60;3.00;;;17.30;99.90;;;;;;4977524;28;20046;-74
2023/08/07 03:17:58;;;;;;;5.65;3.20;;;17.40;99.90;;;;;;4984202;28;20435;-74
2023/08/07 03:20:44;;;;;;;7.82;3.95;;;17.30;99.90;;;;;;4990576;28;20112;-73
2023/08/07 03:23:30;;;;;;;5.07;3.28;;;17.30;99.90;;;;;;4990714;28;20062;-74
2023/08/07 03:26:16;;;;;;;5.00;3.13;;;17.30;99.90;;;;;;4984807;28;20048;-73
2023/08/07 03:29:02;;;;;;;6.25;3.75;;;17.30;99.90;;;;;;4988204;28;20035;-73
2023/08/07 03:31:48;;;;;;;6.72;2.72;;;17.30;99.90;;;;;;4988855;28;20061;-77
2023/08/07 03:34:34;;;;;;;6.20;3.30;;;17.30;99.90;;;;;;4982996;28;20066;-78
2023/08/07 03:37:20;;;;;;;6.45;3.78;;;17.30;99.90;;;;;;4989868;28;20440;-78
2023/08/07 03:40:07;;;;;;;6.40;3.80;;;17.30;99.90;;;;;;4991043;28;20042;-76
2023/08/07 03:42:52;;;;;;;7.72;4.03;;;17.30;99.90;;;;;;4976286;28;20104;-77
2023/08/07 03:45:39;;;;;;;7.22;3.30;;;17.30;99.90;;;;;;4986107;28;20050;-77
2023/08/07 03:48:25;;;;;;;6.07;3.45;;;17.30;99.90;;;;;;4989966;28;20050;-75
2023/08/07 03:51:11;;;;;;;5.97;3.10;;;17.30;99.90;;;;;;4991744;28;20743;-76
2023/08/07 03:53:57;;;;;;;5.85;3.40;;;17.30;99.90;;;;;;4982891;28;20055;-74
2023/08/07 03:56:43;;;;;;;6.45;3.60;;;17.30;99.90;;;;;;4990760;28;20042;-74
2023/08/07 03:59:29;;;;;;;4.95;3.17;;;17.30;99.90;;;;;;4992182;28;20133;-74
2023/08/07 04:02:15;;;;;;;5.93;3.60;;;17.30;99.90;;;;;;4983843;28;20046;-74
2023/08/07 04:05:01;;;;;;;6.22;3.03;;;17.30;99.90;;;;;;4980828;28;20089;-74
2023/08/07 04:07:47;;;;;;;7.28;3.80;;;17.30;99.90;;;;;;4984792;28;20042;-73
2023/08/07 04:10:33;;;;;;;6.38;3.72;;;17.30;99.90;;;;;;4990495;28;20050;-74
2023/08/07 04:13:19;;;;;;;5.82;3.60;;;17.30;99.90;;;;;;4992813;28;20038;-75
2023/08/07 04:16:06;;;;;;;5.45;3.38;;;17.30;99.90;;;;;;4990887;28;20050;-73
2023/08/07 04:18:52;;;;;;;5.50;3.97;;;17.30;99.90;;;;;;4987252;28;20046;-73
2023/08/07 04:21:38;;;;;;;6.70;3.38;;;17.30;99.90;;;;;;4982899;28;20665;-73
2023/08/07 04:24:24;;;;;;;5.80;3.63;;;17.40;99.90;;;;;;4990326;28;20466;-79
2023/08/07 04:27:10;;;;;;;5.50;3.40;;;17.40;99.90;;;;;;4991344;28;20077;-74
2023/08/07 04:29:56;;;;;;;7.53;3.50;;;17.40;99.90;;;;;;4978105;28;20415;-74
2023/08/07 04:32:42;;;;;;;5.10;3.25;;;17.50;99.90;;;;;;4977148;28;20042;-74
2023/08/07 04:35:28;;;;;;;5.68;3.10;;;17.50;99.90;;;;;;4989080;28;20286;-74
2023/08/07 04:38:14;;;;;;;5.32;3.45;;;17.40;99.90;;;;;;4980799;28;20116;-74
2023/08/07 04:41:00;;;;;;;4.32;2.83;;;17.50;99.90;;;;;;4986814;28;20042;-76
2023/08/07 04:43:48;;;;;;;5.22;3.13;;;17.50;99.90;;;;;;4992509;28;20054;-74
2023/08/07 04:46:34;;;;;;;5.63;3.40;;;17.50;99.90;;;;;;4990331;28;20042;-75
2023/08/07 04:49:20;;;;;;;14.85;4.10;;;17.50;99.90;;;;;;4990963;28;20057;-74
2023/08/07 04:52:06;;;;;;;6.70;3.45;;;17.60;99.90;;;;;;4982213;28;20042;-73
2023/08/07 04:54:52;;;;;;;6.18;3.38;;;17.50;99.90;;;;;;4992183;28;20133;-74
2023/08/07 04:57:38;;;;;;;5.07;3.08;;;17.60;99.90;;;;;;4989725;28;20037;-74
2023/08/07 05:00:24;;;;;;;6.47;3.33;;;17.60;99.90;;;;;;4973771;28;20503;-75
2023/08/07 05:03:10;;;;;;;4.55;2.85;;;17.60;99.90;;;;;;4978711;28;20123;-76
2023/08/07 05:06:00;;;;;;;5.35;3.03;;;17.70;99.90;;;;;;4989172;28;20125;-76
2023/08/07 05:08:46;;;;;;;4.05;2.75;;;17.80;99.90;;;;;;4985386;28;20050;-72
2023/08/07 05:11:33;;;;;;;5.90;3.10;;;17.80;99.90;;;;;;4988110;28;20046;-78
2023/08/07 05:14:19;;;;;;;3.90;2.47;;;17.80;99.90;;;;;;4989884;28;20042;-73
2023/08/07 05:17:05;;;;;;;4.63;2.58;;;17.90;99.90;;;;;;4989688;28;20053;-71
2023/08/07 05:19:51;;;;;;;4.78;2.78;;;17.90;99.90;;;;;;4990070;28;20500;-70
2023/08/07 05:22:37;;;;;;;3.78;2.50;;;17.90;99.90;;;;;;4971204;28;20055;-72
2023/08/07 05:25:23;;;;;;;5.03;2.60;;;17.90;99.90;;;;;;4984985;28;20042;-71
2023/08/07 05:28:09;;;;;;;9.52;2.65;;;17.90;99.90;;;;;;4990114;28;20079;-74
2023/08/07 05:30:55;;;;;;;4.10;2.28;;;17.90;99.90;;;;;;4986493;28;20431;-70
2023/08/07 05:33:41;;;;;;;3.63;2.78;;;17.90;99.90;;;;;;4990000;28;20057;-71
2023/08/07 05:36:27;;;;;;;6.25;3.20;;;17.90;99.90;;;;;;4980276;28;20050;-69
2023/08/07 05:39:13;;;;;;;5.43;2.60;;;17.80;99.90;;;;;;4984589;28;20050;-69
2023/08/07 05:41:59;;;;;;;4.75;2.40;;;17.80;99.90;;;;;;4987585;28;20038;-68
2023/08/07 05:44:45;;;;;;;7.97;2.95;;;17.80;99.90;;;;;;4990959;28;20108;-68
2023/08/07 05:47:38;;;;;;;8.57;3.58;;;17.80;99.90;;;;;;4979600;28;20066;-69
2023/08/07 05:50:24;;;;;;;4.55;2.28;;;17.80;99.90;;;;;;4973819;28;20056;-68
2023/08/07 05:53:10;;;;;;;3.95;2.28;;;17.80;99.90;;;;;;4985531;28;20077;-69
2023/08/07 05:55:56;;;;;;;5.05;2.90;;;17.90;99.90;;;;;;4985220;28;20050;-70
2023/08/07 05:58:42;;;;;;;7.22;3.22;;;17.90;99.90;;;;;;4989004;28;20053;-70
2023/08/07 06:01:30;;;;;;;3.78;2.58;;;17.90;99.90;;;;;;4983455;28;20064;-69
2023/08/07 06:04:17;;;;;;;3.95;2.40;;;18.00;99.90;;;;;;4974583;28;20059;-69
2023/08/07 06:07:03;;;;;;;6.22;2.50;;;18.00;99.90;;;;;;4983191;28;20035;-69
2023/08/07 06:09:49;;;;;;;4.15;2.47;;;18.00;99.90;;;;;;4983752;28;20050;-69
2023/08/07 06:12:35;;;;;;;5.28;3.13;;;18.10;99.90;;;;;;4990119;28;20038;-70
2023/08/07 06:15:21;;;;;;;4.85;2.40;;;18.20;99.90;;;;;;4988983;28;20053;-69
2023/08/07 06:18:07;;;;;;;4.28;1.95;;;18.30;99.90;;;;;;4989124;28;20049;-69
2023/08/07 06:20:53;;;;;;;8.73;3.17;;;18.30;99.90;;;;;;4982421;28;20045;-67
2023/08/07 06:23:39;;;;;;;5.15;2.63;;;18.40;99.90;;;;;;4987932;28;20049;-71
2023/08/07 06:26:25;;;;;;;3.45;2.15;;;18.40;99.90;;;;;;4992742;28;20074;-68
2023/08/07 06:29:10;;;;;;;4.65;2.35;;;18.50;99.90;;;;;;4988448;28;20038;-68
2023/08/07 06:31:56;;;;;;;5.75;2.38;;;18.50;99.90;;;;;;4986651;28;20049;-68
2023/08/07 06:34:42;;;;;;;3.70;2.30;;;18.60;99.90;;;;;;4980198;28;20046;-68
2023/08/07 06:37:28;;;;;;;5.38;2.20;;;18.70;99.90;;;;;;4991311;28;20638;-69
2023/08/07 06:40:14;;;;;;;2.67;1.85;;;18.80;99.90;;;;;;4975452;28;20050;-69
2023/08/07 06:43:00;;;;;;;3.42;2.00;;;18.90;99.90;;;;;;4988445;28;20569;-69
2023/08/07 06:45:50;;;;;;;4.68;2.10;;;18.90;99.90;;;;;;4986311;28;20050;-69
2023/08/07 06:48:36;;;;;;;6.25;2.47;;;19.00;99.90;;;;;;4989954;28;20050;-69
2023/08/07 06:51:22;;;;;;;2.95;1.98;;;19.00;99.90;;;;;;4989551;28;20146;-68
2023/08/07 06:54:08;;;;;;;2.80;1.55;;;19.20;99.90;;;;;;4993804;28;20042;-69
2023/08/07 06:56:54;;;;;;;2.92;1.90;;;19.20;99.90;;;;;;4978066;28;20058;-68
2023/08/07 06:59:40;;;;;;;3.10;1.90;;;19.30;99.90;;;;;;4990307;28;20132;-69
2023/08/07 07:02:26;;;;;;;3.78;1.50;;;19.30;99.90;;;;;;4978755;28;20082;-69
2023/08/07 07:05:11;;;;;;;6.07;2.78;;;19.40;99.90;;;;;;4985090;28;20046;-70
2023/08/07 07:07:58;;;;;;;3.10;1.83;;;19.40;99.90;;;;;;4980822;28;20407;-68
2023/08/07 07:10:44;;;;;;;3.80;1.83;;;19.40;99.90;;;;;;4976934;28;20034;-68
2023/08/07 07:13:30;;;;;;;4.15;2.00;;;19.50;99.90;;;;;;4986322;28;20039;-68
2023/08/07 07:16:16;;;;;;;7.75;1.90;;;19.50;99.90;;;;;;4989064;28;20053;-68
2023/08/07 07:19:02;;;;;;;3.22;1.50;;;19.50;99.90;;;;;;4972741;28;20039;-69
2023/08/07 07:21:48;;;;;;;3.53;1.52;;;19.50;99.90;;;;;;4983829;28;20044;-70
2023/08/07 07:24:34;;;;;;;3.55;1.63;;;19.50;99.90;;;;;;4968467;28;20641;-69
2023/08/07 07:27:22;;;;;;;4.53;2.22;;;19.60;99.80;;;;;;4992426;28;20049;-69
2023/08/07 07:30:08;;;;;;;2.45;1.40;;;19.60;99.80;;;;;;4988807;28;20049;-69
2023/08/07 07:32:54;;;;;;;2.60;1.60;;;19.70;99.90;;;;;;4990699;28;20050;-69
2023/08/07 07:35:40;;;;;;;7.72;2.05;;;19.70;99.50;;;;;;4989955;28;20117;-68
2023/08/07 07:38:26;;;;;;;2.38;1.27;;;19.80;99.70;;;;;;4977575;28;20531;-69
2023/08/07 07:41:12;;;;;;;3.30;1.52;;;19.80;99.20;;;;;;4983719;28;20070;-70
2023/08/07 07:43:58;;;;;;;4.53;2.20;;;19.80;99.30;;;;;;4982286;28;20086;-70
2023/08/07 07:46:44;;;;;;;1.73;1.30;;;19.80;99.40;;;;;;4989178;28;20046;-69
2023/08/07 07:49:30;;;;;;;2.28;1.40;;;19.90;99.20;;;;;;4991011;28;20088;-69
2023/08/07 07:52:16;;;;;;;3.28;1.63;;;20.00;99.00;;;;;;4990853;28;20584;-69
2023/08/07 07:55:02;;;;;;;4.18;1.73;;;20.00;98.80;;;;;;4989404;28;20035;-69
2023/08/07 07:57:48;;;;;;;3.80;2.05;;;20.00;98.80;;;;;;4982703;28;20046;-69
2023/08/07 08:00:34;;;;;;;2.25;1.45;;;20.10;98.80;;;;;;4988653;28;20582;-69
2023/08/07 08:03:20;;;;;;;3.30;1.73;;;20.20;98.60;;;;;;4979586;28;20265;-69
2023/08/07 08:06:06;;;;;;;2.13;1.40;;;20.30;98.50;;;;;;4990408;28;20145;-69
2023/08/07 08:08:52;;;;;;;3.53;1.63;;;20.30;98.40;;;;;;4991590;28;20054;-70
2023/08/07 08:11:38;;;;;;;2.95;1.70;;;20.30;98.00;;;;;;4990194;28;20100;-70
2023/08/07 08:14:24;;;;;;;5.85;1.92;;;20.40;98.00;;;;;;4990302;28;20053;-70
2023/08/07 08:17:10;;;;;;;3.45;1.50;;;20.40;97.90;;;;;;4991155;28;20407;-70
2023/08/07 08:19:56;;;;;;;3.75;1.65;;;20.40;97.90;;;;;;4990616;28;20100;-69
2023/08/07 08:22:42;;;;;;;3.25;1.60;;;20.40;97.90;;;;;;4977795;28;20427;-69
2023/08/07 08:25:28;;;;;;;4.22;1.55;;;20.50;97.90;;;;;;4989911;28;20069;-69
2023/08/07 08:28:14;;;;;;;4.70;2.15;;;20.50;97.90;;;;;;4992545;28;20053;-69
2023/08/07 08:31:00;;;;;;;4.72;2.10;;;20.50;97.80;;;;;;4990652;28;20080;-70
2023/08/07 08:33:46;;;;;;;2.42;1.73;;;20.40;97.80;;;;;;4991997;28;20066;-68
2023/08/07 08:36:32;;;;;;;2.10;1.50;;;20.40;97.80;;;;;;4987535;28;20042;-69
2023/08/07 08:39:18;;;;;;;2.97;1.80;;;20.40;97.80;;;;;;4991258;28;20077;-70
2023/08/07 08:42:05;;;;;;;4.55;2.03;;;20.40;97.90;;;;;;4984228;28;20045;-69
2023/08/07 08:44:59;;;;;;;4.45;1.80;;;20.30;97.90;;;;;;4986819;28;20487;-70
2023/08/07 08:47:49;;;;;;;3.28;2.05;;;20.40;98.00;;;;;;4990513;28;20050;-69
2023/08/07 08:50:35;;;;;;;3.13;1.60;;;20.50;98.00;;;;;;4975562;28;20081;-69
2023/08/07 08:53:22;;;;;;;3.17;1.90;;;20.40;97.70;;;;;;4989255;28;20052;-69
2023/08/07 08:56:09;;;;;;;3.20;1.45;;;20.40;97.70;;;;;;4990021;28;20053;-69
2023/08/07 08:58:55;;;;;;;2.35;1.65;;;20.40;97.80;;;;;;4991351;28;20065;-68
2023/08/07 09:01:41;;;;;;;2.33;1.63;;;20.50;97.60;;;;;;4989546;28;20499;-68
2023/08/07 09:04:27;;;;;;;4.25;1.58;;;20.60;97.60;;;;;;4971933;28;20050;-68
2023/08/07 09:07:16;;;;;;;2.83;1.60;;;20.70;97.40;;;;;;4987021;28;20136;-68
2023/08/07 09:10:03;;;;;;;6.47;1.80;;;20.80;97.20;;;;;;4984549;28;20088;-65
2023/08/07 09:13:06;;;;;;;2.20;1.55;;;20.80;97.10;;;;;;4979488;28;20505;-65
2023/08/07 09:15:53;;;;;;;4.25;1.67;;;20.90;97.40;;;;;;4989543;28;20054;-67
2023/08/07 09:18:39;;;;;;;2.40;1.48;;;21.10;97.10;;;;;;4991297;28;20050;-69
2023/08/07 09:21:26;;;;;;;5.38;2.30;;;21.10;96.60;;;;;;4987534;28;20042;-69
2023/08/07 09:24:12;;;;;;;3.97;1.80;;;21.10;96.60;;;;;;4986574;28;20100;-69
2023/08/07 09:26:58;;;;;;;1.95;1.30;;;21.00;96.60;;;;;;4988106;28;20053;-70
2023/08/07 09:29:46;;;;;;;3.58;1.52;;;20.90;96.80;;;;;;4989603;28;20499;-68
2023/08/07 09:32:33;;;;;;;2.65;1.55;;;21.00;97.00;;;;;;4987566;28;20701;-66
2023/08/07 09:35:22;;;;;;;3.83;1.50;;;20.90;97.10;;;;;;4988827;28;20037;-69
2023/08/07 09:38:08;;;;;;;2.80;1.50;;;20.90;97.00;;;;;;4990276;28;20324;-70
2023/08/07 09:40:58;;;;;;;1.52;1.20;;;21.00;97.30;;;;;;4973659;28;20046;-68
2023/08/07 09:43:44;;;;;;;2.88;1.58;;;21.10;97.40;;;;;;4989061;28;20054;-72
2023/08/07 09:46:37;;;;;;;4.15;1.88;;;21.30;97.40;;;;;;4986827;28;20415;-67
2023/08/07 09:49:32;;;;;;;1.83;1.30;;;21.30;97.10;;;;;;4990994;28;20116;-69
2023/08/07 09:52:18;;;;;;;5.75;2.03;;;21.30;97.10;;;;;;4984263;28;20035;-70
2023/08/07 09:55:05;;;;;;;2.45;1.50;;;21.30;96.90;;;;;;4988813;28;20419;-71
2023/08/07 09:57:51;;;;;;;8.90;1.48;;;21.50;96.80;;;;;;4987946;28;20526;-71
2023/08/07 10:00:37;;;;;;;3.70;1.67;;;21.60;96.50;;;;;;4987101;28;20039;-72
2023/08/07 10:03:25;;;;;;;2.78;1.48;;;21.60;96.40;;;;;;4988990;28;20416;-71
2023/08/07 10:06:12;;;;;;;2.58;1.20;;;21.70;96.30;;;;;;4986674;28;20046;-70
2023/08/07 10:08:59;;;;;;;2.78;1.50;;;21.70;96.10;;;;;;4988810;28;20085;-70
2023/08/07 10:11:46;;;;;;;3.40;1.70;;;21.70;96.00;;;;;;4984944;28;20125;-69
2023/08/07 10:14:32;;;;;;;5.03;1.90;;;21.70;96.00;;;;;;4983518;28;20150;-71
2023/08/07 10:17:19;;;;;;;3.72;1.48;;;21.70;95.80;;;;;;4970423;28;20047;-71
2023/08/07 10:20:07;;;;;;;5.32;1.95;;;21.80;95.60;;;;;;4969790;28;20475;-71
2023/08/07 10:22:59;;;;;;;2.03;1.25;;;21.80;95.40;;;;;;4976160;28;20818;-70
2023/08/07 10:25:48;;;;;;;4.32;2.20;;;21.90;95.10;;;;;;4986270;28;20042;-70
2023/08/07 10:28:39;;;;;;;5.85;1.80;;;21.90;94.70;;;;;;4982248;28;20049;-69
2023/08/07 10:31:25;;;;;;;2.00;1.30;;;21.80;94.70;;;;;;4987588;28;20042;-69
2023/08/07 10:34:11;;;;;;;4.55;1.13;;;21.80;94.80;;;;;;4988173;28;20046;-72
2023/08/07 10:36:57;;;;;;;2.42;1.35;;;21.80;94.70;;;;;;4987857;28;20042;-70
2023/08/07 10:40:15;;;;;;;3.17;1.55;;;21.90;94.60;;;;;;4988295;28;20046;-70
2023/08/07 10:43:16;;;;;;;3.58;1.60;;;21.90;94.50;;;;;;4969337;28;20318;-70
2023/08/07 10:46:04;;;;;;;2.70;1.52;;;22.00;94.40;;;;;;4987434;28;20054;-73
2023/08/07 10:48:57;;;;;;;5.85;1.65;;;22.00;94.20;;;;;;4982615;28;20721;-71
2023/08/07 10:51:45;;;;;;;3.80;1.65;;;22.10;93.90;;;;;;4975795;28;20050;-71
2023/08/07 10:54:42;;;;;;;3.17;1.50;;;22.00;93.80;;;;;;4973305;28;20048;-69
2023/08/07 10:57:31;;;;;;;5.03;1.30;;;22.10;93.80;;;;;;4980076;28;20046;-73
2023/08/07 11:00:21;;;;;;;1.92;1.40;;;22.10;93.50;;;;;;4971075;28;20373;-70
2023/08/07 11:03:09;;;;;;;1.90;1.25;;;22.10;93.50;;;;;;4984323;28;20058;-70
2023/08/07 11:05:58;;;;;;;3.55;1.77;;;22.10;93.80;;;;;;4984033;28;20528;-71
2023/08/07 11:08:44;;;;;;;4.93;1.50;;;22.20;93.50;;;;;;4966911;28;20046;-70
2023/08/07 11:11:40;;;;;;;3.38;1.45;;;22.30;93.60;;;;;;4985467;28;20049;-72
2023/08/07 11:14:26;;;;;;;1.98;1.30;;;22.20;93.30;;;;;;4986895;28;20042;-70
2023/08/07 11:17:13;;;;;;;2.60;1.42;;;22.10;93.80;;;;;;4991830;28;20042;-70
2023/08/07 11:19:59;;;;;;;2.65;1.23;;;21.90;94.30;;;;;;4976307;28;20067;-70
2023/08/07 11:22:45;;;;;;;6.18;1.73;;;21.70;94.70;;;;;;4983070;28;20129;-71
2023/08/07 11:25:31;;;;;;;4.43;1.27;;;21.50;95.00;;;;;;4974796;28;20384;-70
2023/08/07 11:28:21;;;;;;;1.98;1.17;;;21.40;95.10;;;;;;4991892;28;20104;-70
2023/08/07 11:31:07;;;;;;;4.40;1.92;;;21.40;95.50;;;;;;4990639;28;20038;-70
2023/08/07 11:34:02;;;;;;;3.65;1.73;;;21.30;95.50;;;;;;4987445;28;20125;-71
2023/08/07 11:36:48;;;;;;;3.15;1.30;;;21.10;95.70;;;;;;4988519;28;20049;-70
2023/08/07 11:39:42;;;;;;;2.45;1.83;;;21.10;95.90;;;;;;4987289;28;20042;-70
2023/08/07 11:42:28;;;;;;;3.10;1.50;;;21.00;96.20;;;;;;4990532;28;20041;-70
2023/08/07 11:45:15;;;;;;;5.78;2.08;;;21.00;96.30;;;;;;4972718;28;20050;-72
2023/08/07 11:48:02;;;;;;;2.75;1.50;;;20.90;96.40;;;;;;4990062;28;20049;-70
2023/08/07 11:50:48;;;;;;;5.85;1.77;;;20.90;96.50;;;;;;4979431;28;20063;-70
2023/08/07 11:53:39;;;;;;;2.50;1.42;;;20.80;96.70;;;;;;4970710;28;20042;-71
2023/08/07 11:56:25;;;;;;;2.85;1.50;;;20.90;97.00;;;;;;4972723;28;20279;-70
2023/08/07 11:59:11;;;;;;;4.00;1.63;;;21.00;97.20;;;;;;4970289;28;20043;-69
2023/08/07 12:01:57;;;;;;;3.60;1.73;;;21.10;97.00;;;;;;4969036;28;20047;-70
2023/08/07 12:04:44;;;;;;;2.35;1.65;;;21.20;97.00;;;;;;4968139;28;20053;-70
2023/08/07 12:07:30;;;;;;;6.68;1.73;;;21.30;96.80;;;;;;4971499;28;20045;-70
2023/08/07 12:10:16;;;;;;;3.72;1.65;;;21.40;96.50;;;;;;4955512;28;20038;-70
2023/08/07 12:13:04;;;;;;;3.38;1.70;;;21.50;96.70;;;;;;4960700;28;20471;-71
2023/08/07 12:15:53;;;;;;;9.65;1.70;;;21.50;96.40;;;;;;4968782;28;20484;-71
2023/08/07 12:18:39;;;;;;;6.28;2.28;;;21.60;96.20;;;;;;4964568;28;20530;-71
2023/08/07 12:21:27;;;;;;;2.72;1.38;;;21.60;96.30;;;;;;4962236;28;20439;-71
2023/08/07 12:24:13;;;;;;;4.30;1.20;;;21.60;96.10;;;;;;4963109;28;20574;-71
2023/08/07 12:26:59;;;;;;;2.78;1.35;;;21.50;96.30;;;;;;4966387;28;20101;-71
2023/08/07 12:29:45;;;;;;;5.78;1.70;;;21.50;96.00;;;;;;4970098;28;20047;-71
2023/08/07 12:32:31;;;;;;;3.03;1.60;;;21.40;96.00;;;;;;4969573;28;20407;-71
2023/08/07 12:35:17;;;;;;;4.00;1.52;;;21.50;95.80;;;;;;4956643;28;20039;-70
2023/08/07 12:38:03;;;;;;;3.63;2.08;;;21.50;95.90;;;;;;4975512;28;20054;-70
2023/08/07 12:40:49;;;;;;;4.03;1.50;;;21.40;96.10;;;;;;4972860;28;20054;-72
2023/08/07 12:43:35;;;;;;;5.82;1.98;;;21.40;96.20;;;;;;4970380;28;20054;-73
2023/08/07 12:46:21;;;;;;;2.88;1.75;;;21.40;95.70;;;;;;4970308;28;20508;-73
2023/08/07 12:49:09;;;;;;;2.28;1.60;;;21.30;95.80;;;;;;4976135;28;20059;-71
2023/08/07 12:51:57;;;;;;;3.22;1.60;;;21.20;95.80;;;;;;4989195;28;20046;-69
2023/08/07 12:54:44;;;;;;;6.78;1.70;;;21.10;95.80;;;;;;4990015;28;20448;-69
2023/08/07 12:57:29;;;;;;;6.00;1.98;;;21.10;95.90;;;;;;4987208;28;20129;-70
2023/08/07 13:00:16;;;;;;;3.22;1.60;;;21.00;96.00;;;;;;4989847;28;20050;-70
2023/08/07 13:03:02;;;;;;;8.52;3.10;;;21.00;96.10;;;;;;4991001;28;20480;-70
2023/08/07 13:05:48;;;;;;;4.88;2.00;;;20.90;95.80;;;;;;4989974;28;20121;-71
2023/08/07 13:08:34;;;;;;;6.55;2.30;;;20.80;95.80;;;;;;4990433;28;20407;-70
2023/08/07 13:11:20;;;;;;;12.63;2.83;;;20.90;96.20;;;;;;4989930;28;20046;-71
2023/08/07 13:14:06;;;;;;;3.35;1.67;;;21.00;95.90;;;;;;4990319;28;20038;-69
2023/08/07 13:16:52;;;;;;;4.97;2.05;;;21.10;95.50;;;;;;4987837;28;20047;-72
2023/08/07 13:19:38;;;;;;;12.57;2.22;;;21.30;95.10;;;;;;4990527;28;20046;-70
2023/08/07 13:22:24;;;;;;;3.72;1.92;;;21.50;95.20;;;;;;4990238;28;20039;-71
2023/08/07 13:25:11;;;;;;;5.22;2.00;;;21.70;95.10;;;;;;4973430;28;20034;-71
2023/08/07 13:27:57;;;;;;;7.25;2.17;;;21.80;95.20;;;;;;4981530;28;20081;-71
2023/08/07 13:30:43;;;;;;;5.90;2.08;;;21.90;95.10;;;;;;4992031;28;20039;-71
2023/08/07 13:33:29;;;;;;;6.90;2.05;;;21.90;94.20;;;;;;4990932;28;20049;-72
2023/08/07 13:36:15;;;;;;;3.70;1.83;;;21.80;93.40;;;;;;4988593;28;20054;-71
2023/08/07 13:39:01;;;;;;;5.53;1.90;;;21.80;93.10;;;;;;4987274;28;20042;-71
2023/08/07 13:41:47;;;;;;;6.30;2.05;;;21.80;92.00;;;;;;4986350;28;20078;-71
2023/08/07 13:44:33;;;;;;;5.38;1.65;;;21.70;91.80;;;;;;4989408;28;20088;-72
2023/08/07 13:47:20;;;;;;;3.55;1.90;;;21.70;91.00;;;;;;4989762;28;20046;-71
2023/08/07 13:50:07;;;;;;;5.55;1.63;;;21.80;90.80;;;;;;4990565;28;20050;-70
2023/08/07 13:52:53;;;;;;;3.47;1.90;;;21.70;90.70;;;;;;4989284;28;20042;-70
2023/08/07 13:55:39;;;;;;;4.32;1.95;;;21.70;89.90;;;;;;4990630;28;20046;-72
2023/08/07 13:58:25;;;;;;;3.78;1.63;;;21.60;90.10;;;;;;4989678;28;20048;-71
2023/08/07 14:01:11;;;;;;;2.20;1.38;;;21.60;90.00;;;;;;4989420;28;20121;-71
2023/08/07 14:03:57;;;;;;;6.72;2.33;;;21.60;89.40;;;;;;4990479;28;20639;-70
2023/08/07 14:06:44;;;;;;;2.97;1.52;;;21.60;88.30;;;;;;4989991;28;20569;-67
2023/08/07 14:09:30;;;;;;;5.32;2.13;;;21.60;87.60;;;;;;4973262;28;20143;-70
2023/08/07 14:12:16;;;;;;;2.95;1.60;;;21.50;87.40;;;;;;4987166;28;20042;-69
2023/08/07 14:15:02;;;;;;;4.28;1.70;;;21.50;87.10;;;;;;4965297;28;20049;-72
2023/08/07 14:17:48;;;;;;;3.92;1.85;;;21.50;87.90;;;;;;4989906;28;20042;-71
2023/08/07 14:20:35;;;;;;;7.70;2.08;;;21.60;88.20;;;;;;4989866;28;20065;-70
2023/08/07 14:23:21;;;;;;;10.80;2.30;;;21.60;86.60;;;;;;4987739;28;20133;-72
2023/08/07 14:26:07;;;;;;;6.45;1.73;;;21.60;87.20;;;;;;4989668;28;20043;-72